Time;durP1;ratioP1;P1;durP2;ratioP2;P2;SDS_P1;SDS_P2;PMS_P1;PMS_P2;Temp;Humidity;BMP_temperature;BMP_pressure;BME280_temperature;BME280_humidity;BME280_pressure;Samples;Min_cycle;Max_cycle;Signal;HPM_P1;HPM_P2
2021/10/16 00:02:01;;;;;;;14.43;1.80;;;6.00;99.90;;;4.34;100.00;100787.06;4997969;28;20069;-88
2021/10/16 00:04:28;;;;;;;31.98;2.25;;;;;;;4.28;100.00;100780.22;4974729;28;20512;-87
2021/10/16 00:06:54;;;;;;;28.38;2.67;;;6.00;99.90;;;4.34;100.00;100784.44;4973388;28;20137;-88
2021/10/16 00:09:28;;;;;;;14.32;1.83;;;;;;;4.34;100.00;100794.88;4970881;28;20409;-87
2021/10/16 00:11:54;;;;;;;14.82;1.75;;;;;;;4.35;100.00;100793.16;4956883;28;20077;-87
2021/10/16 00:14:20;;;;;;;12.40;2.08;;;6.00;99.90;;;4.31;100.00;100798.41;5006771;28;20059;-87
2021/10/16 00:16:46;;;;;;;27.92;2.67;;;6.00;99.90;;;4.39;100.00;100808.69;4958762;28;20082;-87
2021/10/16 00:19:22;;;;;;;19.70;1.90;;;6.00;99.90;;;4.41;100.00;100806.91;4952165;28;20078;-87
2021/10/16 00:21:48;;;;;;;17.08;1.75;;;6.10;99.90;;;4.44;100.00;100811.22;4975118;28;20539;-87
2021/10/16 00:24:15;;;;;;;10.05;2.03;;;;;;;4.42;100.00;100807.78;4983321;28;20080;-87
2021/10/16 00:26:50;;;;;;;15.57;1.83;;;6.00;99.90;;;4.39;100.00;100798.25;4981692;28;20150;-87
2021/10/16 00:29:16;;;;;;;25.48;1.83;;;6.00;99.90;;;4.31;100.00;100793.19;4977256;28;20083;-87
2021/10/16 00:31:43;;;;;;;15.52;2.15;;;6.00;99.90;;;4.25;100.00;100798.53;4938415;28;20085;-88
2021/10/16 00:34:17;;;;;;;16.95;1.67;;;5.80;99.90;;;4.17;100.00;100796.94;5005849;28;20068;-87
2021/10/16 00:36:43;;;;;;;14.23;1.95;;;5.80;99.90;;;4.10;100.00;100801.41;4995270;28;20071;-87
2021/10/16 00:39:09;;;;;;;12.23;1.30;;;5.70;99.90;;;4.06;100.00;100800.63;4958547;28;20071;-87
2021/10/16 00:41:35;;;;;;;18.90;1.73;;;5.70;99.90;;;4.02;100.00;100808.53;4985014;28;20077;-87
2021/10/16 00:44:27;;;;;;;16.48;1.80;;;5.70;99.90;;;4.00;100.00;100810.31;5017393;28;20070;-87
2021/10/16 00:47:41;;;;;;;18.58;1.73;;;5.60;99.90;;;3.95;100.00;100807.75;4983739;28;20660;-87
2021/10/16 00:49:48;;;;;;;20.27;1.65;;;;;;;3.87;100.00;100807.91;5000352;28;20479;-87
2021/10/16 00:52:14;;;;;;;26.13;3.03;;;5.50;99.90;;;3.83;100.00;100802.78;5005793;28;20075;-86
2021/10/16 00:54:50;;;;;;;19.80;1.95;;;;;;;3.80;100.00;100808.03;4977452;28;20069;-85
2021/10/16 00:57:16;;;;;;;13.68;1.85;;;;;;;3.76;100.00;100807.25;4973191;28;20694;-85
2021/10/16 00:59:43;;;;;;;16.33;1.98;;;5.40;99.90;;;3.74;100.00;100814.22;4944221;28;20555;-85
2021/10/16 01:02:20;;;;;;;19.88;1.90;;;5.40;99.90;;;3.72;100.00;100821.22;4949120;28;20064;-84
2021/10/16 01:04:56;;;;;;;11.50;1.30;;;5.40;99.90;;;3.70;100.00;100817.78;4935889;28;20534;-83
2021/10/16 01:07:22;;;;;;;17.17;1.42;;;5.30;99.90;;;3.60;100.00;100804.03;4962321;28;20476;-85
2021/10/16 01:09:49;;;;;;;13.18;1.60;;;5.30;99.90;;;3.64;100.00;100813.50;4974950;28;20150;-84
2021/10/16 01:12:19;;;;;;;12.90;1.48;;;5.30;99.90;;;3.62;100.00;100819.63;4961714;28;20079;-84
2021/10/16 01:15:07;;;;;;;16.63;1.70;;;5.30;99.90;;;3.61;100.00;100823.16;4980818;28;20153;-84
2021/10/16 01:17:36;;;;;;;11.10;1.40;;;5.20;99.90;;;3.57;100.00;100822.31;4972201;28;20974;-84
2021/10/16 01:20:22;;;;;;;26.67;2.70;;;5.20;99.90;;;3.56;100.00;100819.72;4966362;28;20439;-84
2021/10/16 01:22:52;;;;;;;19.15;1.75;;;5.10;99.90;;;3.51;100.00;100818.97;4978817;28;20065;-84
2021/10/16 01:25:22;;;;;;;19.35;1.98;;;5.20;99.90;;;3.51;100.00;100822.41;4969933;28;20137;-84
2021/10/16 01:27:50;;;;;;;14.35;1.60;;;5.20;99.90;;;3.55;100.00;100828.44;4941265;28;20821;-84
2021/10/16 01:30:23;;;;;;;16.33;1.50;;;5.20;99.90;;;3.59;100.00;100837.94;4967947;28;20052;-84
2021/10/16 01:32:49;;;;;;;19.42;1.95;;;5.20;99.90;;;3.57;100.00;100842.28;4953711;28;20163;-84
2021/10/16 01:35:22;;;;;;;18.85;2.10;;;5.30;99.90;;;3.57;100.00;100842.28;4933392;28;20064;-84
2021/10/16 01:37:50;;;;;;;15.50;1.60;;;5.20;99.90;;;3.56;100.00;100845.78;4963175;28;20052;-84
2021/10/16 01:40:26;;;;;;;18.02;1.20;;;5.20;99.90;;;3.51;100.00;100843.25;4978005;28;20063;-84
2021/10/16 01:42:53;;;;;;;21.73;2.00;;;5.10;99.90;;;3.49;100.00;100845.84;4961416;28;20581;-84
2021/10/16 01:45:23;;;;;;;10.82;1.50;;;5.10;99.90;;;3.45;100.00;100840.72;4963313;28;20151;-83
2021/10/16 01:47:54;;;;;;;21.23;1.65;;;5.10;99.90;;;3.45;100.00;100840.72;4959352;28;20075;-84
2021/10/16 01:50:22;;;;;;;13.80;1.38;;;5.20;99.90;;;3.45;100.00;100846.78;4984737;28;20560;-84
2021/10/16 01:52:48;;;;;;;14.43;1.42;;;5.20;99.90;;;3.53;100.00;100853.63;4973255;28;20064;-84
2021/10/16 01:55:22;;;;;;;23.30;1.80;;;5.20;99.90;;;3.54;100.00;100856.19;4963060;28;20073;-84
2021/10/16 01:57:49;;;;;;;17.25;1.75;;;5.20;99.90;;;3.60;100.00;100861.31;4965636;28;20055;-84
2021/10/16 02:00:16;;;;;;;12.20;1.67;;;5.30;99.90;;;3.60;100.00;100868.28;4979656;28;20064;-84
2021/10/16 02:02:49;;;;;;;17.85;1.45;;;5.20;99.90;;;3.59;100.00;100869.19;4942662;28;20066;-84
2021/10/16 02:05:15;;;;;;;15.80;1.55;;;5.30;99.90;;;3.58;100.00;100865.69;5004516;28;20075;-84
2021/10/16 02:07:53;;;;;;;23.95;1.55;;;5.30;99.90;;;3.64;100.00;100875.16;4993829;28;20096;-84
2021/10/16 02:10:19;;;;;;;16.67;1.77;;;5.30;99.90;;;3.62;100.00;100872.56;4975472;28;20463;-84
2021/10/16 02:12:45;;;;;;;22.95;2.05;;;5.30;99.90;;;3.62;100.00;100877.78;4988744;28;20098;-84
2021/10/16 02:15:11;;;;;;;11.30;2.22;;;5.30;99.90;;;3.63;100.00;100868.25;4982687;28;20151;-84
2021/10/16 02:17:42;;;;;;;21.42;2.03;;;;;;;3.68;100.00;100869.88;4990552;28;20066;-84
2021/10/16 02:20:10;;;;;;;19.83;2.17;;;5.30;99.90;;;3.65;100.00;100863.84;4992129;28;20151;-84
2021/10/16 02:22:36;;;;;;;15.55;1.77;;;5.30;99.90;;;3.69;100.00;100873.31;4960802;28;20172;-84
2021/10/16 02:25:02;;;;;;;19.17;2.17;;;5.30;99.90;;;3.69;100.00;100873.31;4990051;28;20062;-84
2021/10/16 02:27:28;;;;;;;16.38;1.15;;;5.30;99.90;;;3.68;100.00;100863.81;4957368;28;20484;-84
2021/10/16 02:30:03;;;;;;;23.75;1.73;;;5.40;99.90;;;3.72;100.00;100870.69;4968986;28;20075;-84
2021/10/16 02:32:29;;;;;;;10.05;1.55;;;5.30;99.90;;;3.66;100.00;100881.22;4963357;28;20086;-85
2021/10/16 02:34:55;;;;;;;13.48;1.40;;;5.30;99.90;;;3.65;100.00;100871.66;4963557;28;20125;-84
2021/10/16 02:37:29;;;;;;;18.63;1.60;;;;;;;3.65;100.00;100874.25;4940070;28;20068;-85
2021/10/16 02:39:55;;;;;;;11.45;1.50;;;5.30;99.90;;;3.60;100.00;100881.28;4983670;28;20076;-84
2021/10/16 02:42:21;;;;;;;8.88;1.23;;;5.30;99.90;;;3.57;100.00;100881.34;4950647;28;20070;-84
2021/10/16 02:44:49;;;;;;;20.85;2.03;;;5.20;99.90;;;3.56;100.00;100882.22;4945206;28;20074;-84
2021/10/16 02:47:27;;;;;;;29.40;2.78;;;5.20;99.90;;;3.56;100.00;100884.81;4974580;28;20063;-84
2021/10/16 02:50:01;;;;;;;16.48;1.92;;;5.20;99.90;;;3.54;100.00;100873.56;4990324;28;20526;-84
2021/10/16 02:52:27;;;;;;;17.20;1.90;;;5.20;99.90;;;3.59;100.00;100882.19;4968149;28;20072;-84
2021/10/16 02:54:53;;;;;;;13.00;1.88;;;5.30;99.90;;;3.64;100.00;100885.56;4959246;28;20055;-84
2021/10/16 02:57:19;;;;;;;22.95;2.83;;;5.30;99.90;;;3.65;100.00;100888.16;4976980;28;20065;-85
2021/10/16 02:59:53;;;;;;;17.50;1.58;;;;;;;3.66;100.00;100895.06;4943195;28;20061;-84
2021/10/16 03:02:19;;;;;;;19.10;2.10;;;5.30;99.90;;;3.66;100.00;100902.03;4953604;28;20105;-84
2021/10/16 03:04:45;;;;;;;12.00;2.40;;;5.30;99.90;;;3.61;100.00;100909.91;4950620;28;20068;-84
2021/10/16 03:07:11;;;;;;;11.93;1.58;;;5.30;99.90;;;3.63;100.00;100912.50;4939870;28;20126;-84
2021/10/16 03:09:46;;;;;;;16.00;1.40;;;5.30;99.90;;;3.69;100.00;100907.19;4969307;28;20066;-84
2021/10/16 03:12:12;;;;;;;23.63;2.25;;;5.40;99.90;;;3.84;100.00;100925.19;4946166;28;20085;-84
2021/10/16 03:14:38;;;;;;;24.50;2.10;;;5.70;99.90;;;4.07;100.00;100937.00;4967520;28;20071;-84
2021/10/16 03:17:06;;;;;;;18.70;1.83;;;5.00;99.90;;;4.16;100.00;100908.16;4985827;28;20068;-84
2021/10/16 03:19:35;;;;;;;13.70;2.17;;;;;;;4.09;100.00;100940.44;4976844;28;20060;-84
2021/10/16 03:22:02;;;;;;;16.80;1.85;;;5.70;99.90;;;4.05;100.00;100941.38;4919090;28;20136;-84
2021/10/16 03:24:28;;;;;;;25.52;2.08;;;5.70;99.90;;;4.02;100.00;100944.88;4960276;28;20464;-84
2021/10/16 03:26:54;;;;;;;24.92;2.45;;;5.70;99.90;;;4.00;100.00;100941.44;4934496;28;20060;-84
2021/10/16 03:29:23;;;;;;;17.20;1.83;;;;;;;4.10;100.00;100950.84;4944411;28;20108;-84
2021/10/16 03:31:55;;;;;;;19.45;1.80;;;5.80;99.90;;;4.19;100.00;100960.25;4972725;28;20127;-85
2021/10/16 03:34:21;;;;;;;17.60;1.88;;;5.90;99.90;;;4.29;100.00;100967.00;4959462;28;20095;-84
2021/10/16 03:36:47;;;;;;;21.92;2.05;;;6.00;99.90;;;4.40;100.00;100971.19;4957808;28;20544;-83
2021/10/16 03:39:20;;;;;;;12.68;1.73;;;6.10;99.90;;;4.50;100.00;100986.66;4961356;28;20062;-84
2021/10/16 03:41:47;;;;;;;18.75;1.88;;;6.20;99.90;;;4.59;100.00;100992.59;4962925;28;20071;-84
2021/10/16 03:44:13;;;;;;;11.82;1.38;;;6.20;99.90;;;4.59;100.00;100983.03;4937502;28;20088;-84
2021/10/16 03:46:39;;;;;;;22.38;1.92;;;;;;;4.66;100.00;100989.84;4966397;28;20110;-84
2021/10/16 03:49:10;;;;;;;18.98;1.95;;;6.30;99.90;;;4.68;100.00;100982.84;4963954;28;20140;-84
2021/10/16 03:51:36;;;;;;;13.70;1.55;;;7.90;99.90;;;4.76;100.00;100979.25;4950424;28;20072;-85
2021/10/16 03:54:03;;;;;;;17.63;1.60;;;6.40;99.90;;;4.78;100.00;100982.72;5000176;28;20068;-85
2021/10/16 03:56:30;;;;;;;22.65;2.40;;;6.40;99.90;;;4.75;100.00;100973.16;4990991;28;20158;-84
2021/10/16 03:58:56;;;;;;;23.27;1.63;;;6.30;99.90;;;4.72;100.00;100971.47;5053938;28;20620;-84
2021/10/16 04:01:31;;;;;;;25.17;2.05;;;6.30;99.90;;;4.69;100.00;100975.91;4973375;28;20096;-84
2021/10/16 04:03:57;;;;;;;15.20;2.05;;;6.30;99.90;;;4.63;100.00;100963.81;4958886;28;20457;-84
2021/10/16 04:06:23;;;;;;;21.38;1.80;;;6.30;99.90;;;4.58;100.00;100972.59;4984442;28;20535;-84
2021/10/16 04:08:59;;;;;;;40.50;2.05;;;6.20;99.90;;;4.53;100.00;100962.25;4966136;28;20071;-85
2021/10/16 04:11:25;;;;;;;17.77;1.77;;;;;;;4.48;100.00;100948.47;4997675;28;20109;-84
2021/10/16 04:13:51;;;;;;;18.23;2.15;;;;;;;4.40;100.00;100977.25;4951228;28;20066;-84
2021/10/16 04:16:28;;;;;;;32.55;2.08;;;6.00;99.90;;;4.34;100.00;100979.13;4965563;28;20160;-84
2021/10/16 04:18:54;;;;;;;19.58;2.13;;;6.00;99.90;;;4.28;100.00;100967.06;4983309;28;20203;-84
2021/10/16 04:21:29;;;;;;;19.90;1.90;;;5.90;99.90;;;4.16;100.00;100952.47;4961857;28;20160;-84
2021/10/16 04:23:55;;;;;;;26.05;2.10;;;5.80;99.90;;;4.15;100.00;100958.59;4966562;28;20059;-83
2021/10/16 04:26:21;;;;;;;13.98;1.90;;;5.70;99.90;;;4.06;100.00;100943.97;4986465;28;20583;-84
2021/10/16 04:28:47;;;;;;;21.17;2.10;;;5.70;99.90;;;4.08;100.00;100962.16;4994492;28;20070;-84
2021/10/16 04:31:20;;;;;;;18.55;2.45;;;5.70;99.90;;;4.08;100.00;100959.53;4945894;28;20058;-84
2021/10/16 04:33:47;;;;;;;18.67;2.13;;;5.70;99.90;;;4.04;100.00;100957.88;4977197;28;20076;-84
2021/10/16 04:36:14;;;;;;;18.90;1.50;;;5.70;99.90;;;3.98;100.00;100958.00;5001052;28;20157;-84
2021/10/16 04:38:45;;;;;;;14.15;1.55;;;5.60;99.90;;;3.96;100.00;100960.63;4923593;28;20074;-84
2021/10/16 04:41:15;;;;;;;14.93;1.80;;;5.60;99.90;;;3.90;100.00;100961.56;4939860;28;20074;-84
2021/10/16 04:43:41;;;;;;;20.42;1.98;;;5.60;99.90;;;3.90;100.00;100953.75;4976814;28;21418;-84
2021/10/16 04:46:14;;;;;;;12.43;1.67;;;5.60;99.90;;;3.88;100.00;100965.94;4949165;28;20072;-84
2021/10/16 04:48:44;;;;;;;28.35;2.38;;;;;;;3.92;100.00;100965.91;4932681;28;20077;-84
2021/10/16 04:51:12;;;;;;;21.13;1.75;;;5.60;99.90;;;3.97;100.00;100971.88;4975064;28;20129;-84
2021/10/16 04:53:39;;;;;;;12.73;1.70;;;5.60;99.90;;;3.94;100.00;100967.59;4938329;28;20131;-84
2021/10/16 04:56:08;;;;;;;29.17;2.15;;;5.60;99.90;;;3.94;100.00;100977.16;4929080;28;20080;-86
2021/10/16 04:58:34;;;;;;;19.05;1.77;;;5.60;99.90;;;3.97;100.00;100977.94;4935041;28;20060;-84
2021/10/16 05:01:00;;;;;;;14.38;1.77;;;5.60;99.90;;;3.96;100.00;100978.00;4951182;28;20068;-85
2021/10/16 05:03:26;;;;;;;26.75;2.20;;;5.60;99.90;;;3.91;100.00;100972.88;4924574;28;21128;-85
2021/10/16 05:05:55;;;;;;;21.88;1.58;;;5.60;99.90;;;3.90;100.00;100971.97;4952667;28;20156;-84
2021/10/16 05:08:27;;;;;;;12.63;1.73;;;;;;;3.94;100.00;100974.56;4945881;28;20535;-84
2021/10/16 05:10:53;;;;;;;17.27;1.90;;;5.60;99.90;;;3.94;100.00;100977.16;4930033;28;20092;-85
2021/10/16 05:13:19;;;;;;;19.67;1.88;;;5.60;99.90;;;3.96;100.00;100975.41;4995501;28;20068;-85
2021/10/16 05:15:55;;;;;;;19.27;2.42;;;5.60;99.90;;;3.99;100.00;100988.38;5010748;28;20064;-85
2021/10/16 05:18:23;;;;;;;14.90;1.90;;;;;;;3.95;100.00;100984.06;4989942;28;20060;-85
2021/10/16 05:20:57;;;;;;;19.23;1.63;;;5.60;99.90;;;3.94;100.00;100988.44;4981805;28;20421;-84
2021/10/16 05:23:23;;;;;;;22.40;1.85;;;5.60;99.90;;;3.95;100.00;100984.06;4930895;28;20439;-85
2021/10/16 05:25:51;;;;;;;16.92;2.08;;;5.60;99.90;;;3.97;100.00;100992.72;4924986;28;20062;-84
2021/10/16 05:28:26;;;;;;;14.40;1.33;;;5.60;99.90;;;3.96;100.00;100991.03;4992701;28;20059;-85
2021/10/16 05:30:53;;;;;;;8.80;1.47;;;5.60;99.90;;;3.93;100.00;100993.66;4949844;28;20065;-85
2021/10/16 05:33:19;;;;;;;19.10;1.77;;;5.60;99.90;;;3.89;100.00;101000.69;4973464;28;20302;-84
2021/10/16 05:35:52;;;;;;;7.65;1.40;;;5.60;99.90;;;3.90;100.00;100998.03;4955409;28;20080;-85
2021/10/16 05:38:21;;;;;;;15.00;1.98;;;;;;;3.94;100.00;101000.59;4959157;28;20075;-85
2021/10/16 05:40:48;;;;;;;12.60;1.60;;;5.60;99.90;;;4.02;100.00;101006.56;4962690;28;20053;-85
2021/10/16 05:43:22;;;;;;;17.73;1.58;;;5.70;99.90;;;4.07;100.00;101010.81;4979902;28;20186;-86
2021/10/16 05:45:48;;;;;;;24.23;1.48;;;5.80;99.90;;;4.19;100.00;101014.09;4948971;28;20051;-85
2021/10/16 05:48:14;;;;;;;17.85;1.75;;;5.90;99.90;;;4.30;100.00;101038.28;4958565;28;20141;-84
2021/10/16 05:50:50;;;;;;;11.68;1.58;;;6.00;99.90;;;4.42;100.00;101051.09;4954077;28;20114;-85
2021/10/16 05:53:16;;;;;;;24.80;2.70;;;6.10;99.90;;;4.53;100.00;101071.78;5051803;28;20062;-84
2021/10/16 05:55:42;;;;;;;20.77;2.17;;;6.20;99.90;;;4.60;100.00;101073.44;4994681;28;20082;-85
2021/10/16 05:58:18;;;;;;;21.88;2.10;;;6.30;99.90;;;4.66;100.00;101072.47;4975035;28;20065;-85
2021/10/16 06:00:44;;;;;;;;;;;6.30;99.90;;;4.73;100.00;101084.53;4944554;28;20067;-85
2021/10/16 06:03:10;;;;;;;18.52;2.38;;;6.30;99.90;;;4.78;100.00;101089.66;4999444;28;20016;-85
2021/10/16 06:05:44;;;;;;;9.85;1.45;;;6.40;99.90;;;4.82;100.00;101081.75;4989775;28;20068;-86
2021/10/16 06:15:35;;;;;;;22.52;2.00;;;;;;;5.09;100.00;101072.56;5049648;22;20444;-85
2021/10/16 06:18:04;;;;;;;20.42;2.92;;;;;;;5.18;100.00;101079.38;4904971;28;20073;-84
2021/10/16 06:20:30;;;;;;;20.42;2.83;;;6.80;99.90;;;5.22;100.00;101067.13;4967391;28;20138;-84
2021/10/16 06:23:02;;;;;;;17.45;2.97;;;6.80;99.90;;;5.32;100.00;101069.53;4905151;28;20127;-84
2021/10/16 06:25:31;;;;;;;20.58;2.38;;;6.90;99.90;;;5.39;100.00;101069.41;4929032;28;20073;-84
2021/10/16 06:27:57;;;;;;;29.40;3.17;;;7.00;99.90;;;5.43;100.00;101060.63;4912561;28;20414;-84
2021/10/16 06:30:23;;;;;;;13.80;1.85;;;7.00;99.90;;;5.53;100.00;101062.19;4907902;28;20062;-84
2021/10/16 06:32:58;;;;;;;20.20;2.60;;;;;;;5.55;100.00;101049.94;4881587;28;20340;-85
2021/10/16 06:43:18;;;;;;;17.25;1.95;;;7.30;99.90;;;5.76;100.00;101038.16;4933404;28;20081;-83
2021/10/16 06:45:44;;;;;;;19.63;3.08;;;7.30;99.90;;;5.80;100.00;101024.13;4896188;28;25655;-85
2021/10/16 06:48:10;;;;;;;19.50;2.03;;;7.30;99.90;;;5.81;100.00;101023.25;4934998;28;20080;-84
2021/10/16 06:50:36;;;;;;;21.60;2.28;;;7.30;99.90;;;5.83;100.00;101023.19;4889927;28;20563;-84
2021/10/16 06:53:03;;;;;;;20.52;2.53;;;7.40;99.90;;;5.89;100.00;101026.53;4884535;28;20077;-84
2021/10/16 06:55:29;;;;;;;12.73;2.20;;;7.40;99.90;;;5.88;100.00;101019.59;4934381;28;20073;-84
2021/10/16 06:57:57;;;;;;;16.75;1.92;;;7.40;99.90;;;5.89;100.00;101034.38;4923227;28;20121;-82
2021/10/16 07:00:23;;;;;;;15.68;2.25;;;7.40;99.90;;;5.90;100.00;101028.28;4982960;28;20146;-82
2021/10/16 07:02:50;;;;;;;17.25;2.05;;;7.40;99.90;;;5.90;100.00;101036.13;4990798;28;20057;-81
2021/10/16 07:05:16;;;;;;;19.30;2.22;;;7.40;99.90;;;5.91;100.00;101024.75;4940628;28;20056;-84
2021/10/16 07:07:42;;;;;;;27.33;2.95;;;7.50;99.90;;;5.93;100.00;101035.19;4878757;28;20169;-85
2021/10/16 07:10:08;;;;;;;17.38;1.77;;;7.50;99.90;;;5.97;100.00;101043.84;4967765;28;20144;-85
2021/10/16 07:12:39;;;;;;;16.08;2.17;;;7.50;99.90;;;6.01;100.00;101043.75;4863422;28;20481;-84
2021/10/16 07:15:07;;;;;;;11.38;1.42;;;7.50;99.90;;;6.05;100.00;101041.94;4923522;28;20064;-85
2021/10/16 07:17:33;;;;;;;16.58;1.50;;;7.60;99.90;;;6.09;100.00;101041.81;4896031;28;20069;-84
2021/10/16 07:19:59;;;;;;;15.75;1.95;;;7.60;99.90;;;6.13;100.00;101053.06;4893514;28;20064;-85
2021/10/16 07:22:33;;;;;;;15.75;2.35;;;7.70;99.90;;;6.20;100.00;101053.75;4885621;28;20077;-85
2021/10/16 07:24:59;;;;;;;19.13;1.98;;;7.80;99.90;;;6.32;100.00;101067.41;4889085;28;20143;-84
2021/10/16 07:27:25;;;;;;;13.38;1.80;;;7.90;99.90;;;6.52;100.00;101073.94;4923347;28;20058;-85
2021/10/16 07:29:51;;;;;;;9.38;1.48;;;8.10;99.90;;;6.77;100.00;101089.91;4929757;28;20094;-84
2021/10/16 07:32:22;;;;;;;13.57;2.75;;;8.40;99.90;;;7.11;100.00;101079.41;4907181;28;20065;-84
2021/10/16 07:34:48;;;;;;;13.15;2.65;;;8.50;99.90;;;7.30;100.00;101079.78;4975240;28;20070;-83
2021/10/16 07:37:15;;;;;;;11.63;1.92;;;8.70;99.90;;;7.51;100.00;101080.94;4941129;28;20146;-81
2021/10/16 07:39:41;;;;;;;12.20;2.20;;;8.80;99.90;;;7.47;100.00;101063.56;4993089;28;20523;-80
2021/10/16 07:42:07;;;;;;;10.00;1.35;;;8.70;99.90;;;7.19;100.00;101048.66;4948725;28;20059;-81
2021/10/16 07:44:35;;;;;;;19.65;1.92;;;;;;;6.97;100.00;101053.59;4934067;28;20034;-85
2021/10/16 07:47:05;;;;;;;13.55;1.98;;;;;;;6.88;100.00;101059.06;4907516;28;20054;-85
2021/10/16 07:49:31;;;;;;;13.45;1.40;;;;;;;6.78;100.00;101061.06;4924733;28;20081;-84
2021/10/16 07:51:57;;;;;;;10.93;1.52;;;8.20;99.90;;;6.73;100.00;101062.06;4916478;28;20067;-77
2021/10/16 07:54:23;;;;;;;16.80;1.70;;;8.20;99.90;;;6.74;100.00;101076.91;4920910;28;20067;-84
2021/10/16 07:57:01;;;;;;;10.32;1.35;;;8.20;99.90;;;6.72;100.00;101068.22;4924492;28;20461;-85
2021/10/16 07:59:28;;;;;;;18.10;1.45;;;8.20;99.90;;;6.76;100.00;101083.81;4929088;28;20076;-85
2021/10/16 08:02:01;;;;;;;8.90;1.63;;;8.30;99.90;;;6.86;100.00;101101.88;4926536;28;20062;-84
2021/10/16 08:04:27;;;;;;;7.82;1.52;;;8.40;99.90;;;6.96;100.00;101111.25;4890814;28;20083;-84
2021/10/16 08:06:54;;;;;;;7.03;1.33;;;8.50;99.90;;;7.01;100.00;101117.22;4894652;28;20084;-83
2021/10/16 08:09:20;;;;;;;9.23;1.35;;;;;;;7.04;100.00;101114.53;4938043;28;20548;-83
2021/10/16 08:11:49;;;;;;;8.40;1.40;;;8.50;99.90;;;7.04;100.00;101142.44;4954737;28;20317;-83
2021/10/16 08:14:15;;;;;;;13.13;1.75;;;8.50;99.90;;;7.00;100.00;101146.91;4902432;28;20068;-83
2021/10/16 08:16:41;;;;;;;11.02;1.83;;;8.50;99.90;;;6.97;100.00;101139.97;4899598;28;20108;-85
2021/10/16 08:19:07;;;;;;;10.95;1.45;;;8.40;99.90;;;6.98;100.00;101133.00;4897977;28;20093;-84
2021/10/16 08:21:35;;;;;;;10.10;1.60;;;;;;;6.98;100.00;101126.00;4909388;28;20495;-84
2021/10/16 08:24:07;;;;;;;5.57;1.10;;;8.50;99.90;;;6.99;100.00;101101.53;4944126;28;20056;-85
2021/10/16 08:26:33;;;;;;;16.20;1.60;;;8.50;99.90;;;7.08;100.00;101150.19;4932765;28;20072;-83
2021/10/16 08:28:59;;;;;;;16.48;1.27;;;8.50;99.90;;;7.10;100.00;101148.38;4951954;28;20200;-83
2021/10/16 08:31:25;;;;;;;11.98;1.40;;;;;;;7.15;100.00;101150.91;4867319;28;20084;-83
2021/10/16 08:33:53;;;;;;;5.97;1.00;;;;;;;7.25;100.00;101172.47;4889976;28;20832;-85
2021/10/16 08:36:38;;;;;;;;;;;;;;;;;;;;;
2021/10/16 08:39:08;;;;;;;4.65;1.02;;;;;;;7.36;100.00;101166.06;4879453;28;20868;-84
2021/10/16 08:41:36;;;;;;;5.20;0.88;;;;;;;7.43;100.00;101163.25;4875180;28;20528;-83
2021/10/16 08:44:12;;;;;;;9.15;1.10;;;;;;;7.47;100.00;101157.06;4889053;28;20075;-85
2021/10/16 08:47:03;;;;;;;;;;;9.00;99.90;;;7.47;100.00;101151.81;4907673;28;20057;-83
2021/10/16 08:50:34;;;;;;;9.85;0.85;;;6.10;99.90;;;7.62;100.00;101166.25;4884107;28;20321;-83
2021/10/16 08:56:39;;;;;;;11.77;1.58;;;;;;;7.93;100.00;101169.75;4916792;28;20111;-84
2021/10/16 08:59:18;;;;;;;15.32;2.17;;;;;;;7.99;100.00;101174.81;4860672;28;20089;-81
2021/10/16 09:02:42;;;;;;;6.75;1.35;;;;;;;8.13;100.00;101182.28;4850423;28;20586;-82
2021/10/16 09:05:28;;;;;;;9.13;1.45;;;;;;;8.22;100.00;101194.28;4830655;28;20531;-82
2021/10/16 09:12:12;;;;;;;9.32;1.88;;;;;;;8.23;100.00;101175.03;4791789;28;20080;-81
2021/10/16 09:16:20;;;;;;;21.40;2.22;;;9.70;99.90;;;8.38;100.00;101174.56;4818238;28;20073;-82
2021/10/16 09:19:53;;;;;;;;;;;;;;;;;;;;;
2021/10/16 09:23:22;;;;;;;;;;;;;;;;;;;;;
2021/10/16 09:26:41;;;;;;;14.50;1.55;;;10.20;99.90;;;8.79;100.00;101182.94;4906522;28;20485;-81
2021/10/16 09:29:36;;;;;;;16.48;2.78;;;10.10;99.90;;;8.78;100.00;101173.34;4932488;28;20076;-81
2021/10/16 09:33:05;;;;;;;7.32;1.58;;;10.20;99.90;;;8.91;100.00;101175.56;4908268;28;20076;-81
2021/10/16 09:36:04;;;;;;;15.70;3.00;;;10.10;99.90;;;8.75;99.77;101156.84;4911390;28;20111;-81
2021/10/16 09:38:47;;;;;;;6.72;1.48;;;;;;;8.88;100.00;101178.31;4890977;28;21618;-82
2021/10/16 12:55:07;;;;;;;2.60;0.90;;;;;;;10.39;81.91;101034.34;4700734;29;20080;-78
2021/10/16 13:01:51;;;;;;;6.13;1.17;;;11.70;99.90;;;10.38;82.81;101043.16;4803163;28;20085;-79
2021/10/16 13:04:42;;;;;;;7.53;0.90;;;;;;;10.52;83.72;101050.47;4771210;29;20156;-79
2021/10/16 13:14:47;;;;;;;2.53;1.02;;;;;;;10.54;82.83;101032.84;4796512;28;20040;-78
2021/10/16 13:24:36;;;;;;;;;;;;;;;;;;;;;
2021/10/16 13:27:19;;;;;;;2.90;0.77;;;;;;;10.27;79.96;100989.13;4897418;28;20042;-81
2021/10/16 13:30:36;;;;;;;4.38;0.90;;;11.60;99.90;;;10.23;81.05;100997.22;4823315;28;20062;-79
2021/10/16 13:33:02;;;;;;;5.90;0.77;;;;;;;10.15;80.78;100983.50;4825292;28;20048;-78
2021/10/16 13:35:53;;;;;;;7.55;0.80;;;;;;;9.99;80.73;100976.25;4785429;29;20576;-78
2021/10/16 17:11:47;;;;;;;6.07;3.13;;;9.80;99.90;;;8.35;98.42;100916.66;5066674;27;21004;-81
2021/10/16 17:14:13;;;;;;;9.65;2.33;;;9.80;99.90;;;8.35;98.93;100909.63;5013364;28;20078;-81
2021/10/16 17:16:41;;;;;;;9.35;2.95;;;9.80;99.90;;;8.35;98.61;100909.63;5033663;28;20051;-81
2021/10/16 17:19:07;;;;;;;8.88;2.50;;;9.80;99.90;;;8.36;99.36;100910.50;5058809;28;20097;-80
2021/10/16 17:21:37;;;;;;;3.97;2.17;;;;;;;8.35;99.26;100922.75;4993314;28;20182;-81
2021/10/16 17:24:03;;;;;;;7.47;2.67;;;9.80;99.90;;;8.35;98.78;100914.03;5000354;28;20515;-81
2021/10/16 17:26:29;;;;;;;4.63;2.50;;;9.80;99.90;;;8.36;99.73;100918.38;5036904;28;20122;-81
2021/10/16 17:29:04;;;;;;;7.15;2.80;;;9.70;99.90;;;8.32;99.49;100922.84;5040510;28;22365;-80
2021/10/16 17:31:37;;;;;;;10.90;2.85;;;9.70;99.90;;;8.30;99.87;100929.91;4994724;28;20565;-81
2021/10/16 17:34:06;;;;;;;9.55;3.10;;;9.70;99.90;;;8.31;99.78;100921.13;5018431;28;20066;-80
2021/10/16 17:36:33;;;;;;;14.18;2.90;;;9.70;99.90;;;8.34;99.36;100922.81;5046951;28;20091;-81
2021/10/16 17:39:00;;;;;;;8.63;2.60;;;9.70;99.90;;;8.31;99.72;100921.13;5024694;28;20580;-80
2021/10/16 17:41:26;;;;;;;9.27;2.35;;;9.70;99.90;;;8.30;99.68;100923.81;5021888;28;20066;-80
2021/10/16 17:43:54;;;;;;;5.72;1.88;;;9.70;99.90;;;8.26;100.00;100915.19;4984106;28;20102;-81
2021/10/16 17:46:22;;;;;;;9.80;2.35;;;9.70;99.90;;;8.22;100.00;100913.56;4966669;28;20058;-81
2021/10/16 17:48:50;;;;;;;10.93;2.35;;;9.60;99.90;;;8.19;99.84;100900.59;5007916;27;25282;-81
2021/10/16 17:51:17;;;;;;;6.65;2.30;;;9.60;99.90;;;8.18;100.00;100898.84;5015382;27;20075;-81
2021/10/16 17:53:45;;;;;;;12.57;2.63;;;9.60;99.90;;;8.16;100.00;100893.69;5037383;28;20145;-80
2021/10/16 17:56:14;;;;;;;8.43;2.80;;;;;;;8.16;100.00;100892.78;4967094;28;20102;-81
2021/10/16 17:58:40;;;;;;;15.00;2.38;;;9.50;99.90;;;8.13;100.00;100900.78;5002972;28;20051;-81
2021/10/16 18:01:06;;;;;;;12.25;2.88;;;9.50;99.90;;;8.08;100.00;100887.81;5024854;28;20056;-80
2021/10/16 18:03:33;;;;;;;7.07;2.53;;;;;;;8.02;100.00;100888.03;5051016;28;20055;-80
2021/10/16 18:05:59;;;;;;;8.55;2.38;;;9.40;99.90;;;7.96;100.00;100894.31;5041442;28;20056;-80
2021/10/16 18:08:34;;;;;;;9.73;2.72;;;9.40;99.90;;;7.92;100.00;100895.31;4988904;28;20057;-80
2021/10/16 18:11:02;;;;;;;10.13;2.67;;;9.40;99.90;;;7.90;100.00;100896.28;5008674;28;20163;-80
2021/10/16 18:13:36;;;;;;;7.50;2.25;;;9.30;99.90;;;7.86;100.00;100903.41;4996044;28;20056;-81
2021/10/16 18:16:04;;;;;;;10.60;1.98;;;9.30;99.90;;;7.85;100.00;100888.56;5016915;28;20085;-80
2021/10/16 18:18:30;;;;;;;9.68;2.05;;;9.30;99.90;;;7.84;100.00;100880.75;4989299;28;20055;-81